Terminal Aerodrome Forecast
Issued by NWS Twin Cities, MN

Home | Current Version | Previous Version | Graphics & Text | Print | Product List | Glossary On
Versions: 1 2 3 4 5 6 7 8 9 10 11 12 13 14 15 16 17 18 19 20 21 22 23 24 25 26 27 28 29
038
FTUS43 KMPX 192100 AAA
TAFMSP
TAF AMD
KMSP 192100Z 1921/2024 14010KT P6SM BKN250
     FM200600 14010KT P6SM OVC200 WS020/20045KT
     FM201200 14010KT P6SM OVC015
     FM201500 14010KT 4SM SHRA BR VCTS OVC012CB
     FM202000 21012KT P6SM SCT020 BKN150=

USA.gov is the U.S. government's official web portal to all federal, state and local government web resources and services.